Terminal Aerodrome Forecast
Issued by NWS Wakefield, VA

Home | Current Version | Previous Version | Text Only | Print | Product List | Glossary On
Versions: 1 2 3 4 5 6 7 8 9 10 11 12 13 14 15 16 17 18 19
436
FTUS41 KAKQ 302320
TAFECG
TAF
KECG 302320Z 0100/0124 19009KT P6SM SKC
     FM010800 19010KT P6SM SCT015 BKN025
     FM011400 20016G24KT P6SM SCT080
     FM012100 19020G32KT P6SM SCT120=

USA.gov is the U.S. government's official web portal to all federal, state and local government web resources and services.